Sao Manuel, Brazil
Current Conditions -  °F | °C
As of 12:00 AM on Monday 20 Oct 2014 (Local Time) from SBBU Reporting Station
Light Rain Light Rain  
Wind Chill: 68°   Ceiling: Unl
Heat Index: 68°   Visibility: 3mi
Dew Point: 68°   Wind: 9mph
Humidity: 100%   Direction: 110°ESE
Pressure: 29.94"   Gusts: NA
Location:  22.73°S, 48.57°W
Report Text: SBBU 200300Z 11008KT 5000 -RA BR NSC 20/20 Q1014
Loading
Personal Weather Stations






























Interactive Weather Map
Tropical Storm Tracking
New forecast layout! Learn more

10-Day Weather Forecast

Advertisements
Track Severe Weather on mobile